sensor_id;sensor_type;location;lat;lon;timestamp;pressure;altitude;pressure_sealevel;temperature;humidity
71573;BME280;59408;51.032;9.410;2023-11-21T00:00:22;98395.00;;;4.34;100.00
71573;BME280;59408;51.032;9.410;2023-11-21T00:02:48;98402.13;;;4.38;100.00
71573;BME280;59408;51.032;9.410;2023-11-21T00:05:16;98404.84;;;4.38;100.00
71573;BME280;59408;51.032;9.410;2023-11-21T00:07:43;98413.13;;;4.42;100.00
71573;BME280;59408;51.032;9.410;2023-11-21T00:10:11;98403.59;;;4.44;100.00
71573;BME280;59408;51.032;9.410;2023-11-21T00:12:38;98406.31;;;4.44;100.00
71573;BME280;59408;51.032;9.410;2023-11-21T00:15:06;98405.19;;;4.45;100.00
71573;BME280;59408;51.032;9.410;2023-11-21T00:17:32;98400.25;;;4.47;100.00
71573;BME280;59408;51.032;9.410;2023-11-21T00:19:59;98405.34;;;4.49;100.00
71573;BME280;59408;51.032;9.410;2023-11-21T00:22:27;98406.16;;;4.49;100.00
71573;BME280;59408;51.032;9.410;2023-11-21T00:24:54;98403.94;;;4.51;100.00
71573;BME280;59408;51.032;9.410;2023-11-21T00:27:20;98403.31;;;4.54;100.00
71573;BME280;59408;51.032;9.410;2023-11-21T00:29:47;98408.22;;;4.52;100.00
71573;BME280;59408;51.032;9.410;2023-11-21T00:32:14;98410.94;;;4.52;100.00
71573;BME280;59408;51.032;9.410;2023-11-21T00:34:40;98410.94;;;4.52;100.00
71573;BME280;59408;51.032;9.410;2023-11-21T00:37:07;98402.81;;;4.52;100.00
71573;BME280;59408;51.032;9.410;2023-11-21T00:39:35;98405.22;;;4.54;100.00
71573;BME280;59408;51.032;9.410;2023-11-21T00:42:02;98415.22;;;4.53;100.00
71573;BME280;59408;51.032;9.410;2023-11-21T00:44:29;98410.63;;;4.54;100.00
71573;BME280;59408;51.032;9.410;2023-11-21T00:46:55;98406.47;;;4.56;100.00
71573;BME280;59408;51.032;9.410;2023-11-21T00:49:22;98406.47;;;4.56;100.00
71573;BME280;59408;51.032;9.410;2023-11-21T00:51:49;98404.56;;;4.57;100.00
71573;BME280;59408;51.032;9.410;2023-11-21T00:54:15;98411.06;;;4.56;100.00
71573;BME280;59408;51.032;9.410;2023-11-21T00:56:43;98415.38;;;4.57;100.00
71573;BME280;59408;51.032;9.410;2023-11-21T00:59:10;98419.97;;;4.56;100.00
71573;BME280;59408;51.032;9.410;2023-11-21T01:01:37;98415.38;;;4.57;100.00
71573;BME280;59408;51.032;9.410;2023-11-21T01:04:04;98410.78;;;4.57;100.00
71573;BME280;59408;51.032;9.410;2023-11-21T01:06:31;98415.38;;;4.57;100.00
71573;BME280;59408;51.032;9.410;2023-11-21T01:08:57;98416.16;;;4.57;100.00
71573;BME280;59408;51.032;9.410;2023-11-21T01:11:24;98418.06;;;4.57;100.00
71573;BME280;59408;51.032;9.410;2023-11-21T01:13:52;98417.28;;;4.56;100.00
71573;BME280;59408;51.032;9.410;2023-11-21T01:16:18;98423.47;;;4.57;100.00
71573;BME280;59408;51.032;9.410;2023-11-21T01:18:45;98429.97;;;4.56;100.00
71573;BME280;59408;51.032;9.410;2023-11-21T01:21:12;98428.41;;;4.55;100.00
71573;BME280;59408;51.032;9.410;2023-11-21T01:23:38;98433.47;;;4.56;100.00
71573;BME280;59408;51.032;9.410;2023-11-21T01:26:05;98437.78;;;4.57;100.00
71573;BME280;59408;51.032;9.410;2023-11-21T01:28:31;98439.69;;;4.57;100.00
71573;BME280;59408;51.032;9.410;2023-11-21T01:31:00;98441.59;;;4.56;100.00
71573;BME280;59408;51.032;9.410;2023-11-21T01:33:26;98436.53;;;4.55;100.00
71573;BME280;59408;51.032;9.410;2023-11-21T01:35:53;98443.81;;;4.54;100.00
71573;BME280;59408;51.032;9.410;2023-11-21T01:38:19;98443.03;;;4.54;100.00
71573;BME280;59408;51.032;9.410;2023-11-21T01:40:46;98439.22;;;4.55;100.00
71573;BME280;59408;51.032;9.410;2023-11-21T01:43:13;98436.53;;;4.55;100.00
71573;BME280;59408;51.032;9.410;2023-11-21T01:45:39;98435.72;;;4.54;100.00
71573;BME280;59408;51.032;9.410;2023-11-21T01:48:08;98436.03;;;4.53;100.00
71573;BME280;59408;51.032;9.410;2023-11-21T01:50:35;98440.63;;;4.52;100.00
71573;BME280;59408;51.032;9.410;2023-11-21T01:53:02;98442.53;;;4.52;100.00
71573;BME280;59408;51.032;9.410;2023-11-21T01:55:28;98437.44;;;4.50;100.00
71573;BME280;59408;51.032;9.410;2023-11-21T01:57:56;98454.44;;;4.51;100.00
71573;BME280;59408;51.032;9.410;2023-11-21T02:00:22;98451.75;;;4.51;100.00
71573;BME280;59408;51.032;9.410;2023-11-21T02:02:49;98450.94;;;4.50;100.00
71573;BME280;59408;51.032;9.410;2023-11-21T02:05:18;98452.06;;;4.49;100.00
71573;BME280;59408;51.032;9.410;2023-11-21T02:07:46;98455.06;;;4.48;100.00
71573;BME280;59408;51.032;9.410;2023-11-21T02:10:12;98451.91;;;4.46;100.00
71573;BME280;59408;51.032;9.410;2023-11-21T02:12:39;98452.66;;;4.46;100.00
71573;BME280;59408;51.032;9.410;2023-11-21T02:15:06;98457.31;;;4.46;100.00
71573;BME280;59408;51.032;9.410;2023-11-21T02:17:33;98461.09;;;4.45;100.00
71573;BME280;59408;51.032;9.410;2023-11-21T02:20:00;98458.41;;;4.45;100.00
71573;BME280;59408;51.032;9.410;2023-11-21T02:22:30;98459.81;;;4.42;100.00
71573;BME280;59408;51.032;9.410;2023-11-21T02:24:59;98461.22;;;4.40;100.00
71573;BME280;59408;51.032;9.410;2023-11-21T02:27:26;98464.25;;;4.38;100.00
71573;BME280;59408;51.032;9.410;2023-11-21T02:29:52;98466.78;;;4.35;100.00
71573;BME280;59408;51.032;9.410;2023-11-21T02:32:19;98468.19;;;4.32;100.00
71573;BME280;59408;51.032;9.410;2023-11-21T02:34:46;98466.09;;;4.29;100.00
71573;BME280;59408;51.032;9.410;2023-11-21T02:37:12;98470.25;;;4.26;100.00
71573;BME280;59408;51.032;9.410;2023-11-21T02:39:39;98470.06;;;4.23;100.00
71573;BME280;59408;51.032;9.410;2023-11-21T02:42:07;98467.50;;;4.18;100.00
71573;BME280;59408;51.032;9.410;2023-11-21T02:44:34;98476.72;;;4.17;100.00
71573;BME280;59408;51.032;9.410;2023-11-21T02:47:00;98480.22;;;4.17;100.00
71573;BME280;59408;51.032;9.410;2023-11-21T02:49:27;98472.91;;;4.18;100.00
71573;BME280;59408;51.032;9.410;2023-11-21T02:51:53;98467.50;;;4.18;100.00
71573;BME280;59408;51.032;9.410;2023-11-21T02:54:20;98472.75;;;4.23;100.00
71573;BME280;59408;51.032;9.410;2023-11-21T02:56:46;98467.06;;;4.24;100.00
71573;BME280;59408;51.032;9.410;2023-11-21T02:59:14;98469.16;;;4.28;100.00
71573;BME280;59408;51.032;9.410;2023-11-21T03:01:41;98475.81;;;4.30;100.00
71573;BME280;59408;51.032;9.410;2023-11-21T03:04:08;98470.41;;;4.30;100.00
71573;BME280;59408;51.032;9.410;2023-11-21T03:06:34;98479.78;;;4.33;100.00
71573;BME280;59408;51.032;9.410;2023-11-21T03:09:01;98470.59;;;4.34;100.00
71573;BME280;59408;51.032;9.410;2023-11-21T03:11:27;98482.19;;;4.34;100.00
71573;BME280;59408;51.032;9.410;2023-11-21T03:13:54;98482.50;;;4.33;100.00
71573;BME280;59408;51.032;9.410;2023-11-21T03:16:22;98472.94;;;4.26;100.00
71573;BME280;59408;51.032;9.410;2023-11-21T03:18:49;98481.03;;;4.26;100.00
71573;BME280;59408;51.032;9.410;2023-11-21T03:21:15;98485.16;;;4.24;100.00
71573;BME280;59408;51.032;9.410;2023-11-21T03:23:42;98495.16;;;4.23;100.00
71573;BME280;59408;51.032;9.410;2023-11-21T03:26:11;98496.56;;;4.21;100.00
71573;BME280;59408;51.032;9.410;2023-11-21T03:28:38;98504.97;;;4.19;100.00
71573;BME280;59408;51.032;9.410;2023-11-21T03:31:05;98498.59;;;4.15;100.00
71573;BME280;59408;51.032;9.410;2023-11-21T03:33:34;98507.50;;;4.16;100.00
71573;BME280;59408;51.032;9.410;2023-11-21T03:36:00;98508.59;;;4.15;100.00
71573;BME280;59408;51.032;9.410;2023-11-21T03:38:27;98507.81;;;4.14;100.00
71573;BME280;59408;51.032;9.410;2023-11-21T03:40:53;98511.13;;;4.11;100.00
71573;BME280;59408;51.032;9.410;2023-11-21T03:43:20;98511.91;;;4.12;100.00
71573;BME280;59408;51.032;9.410;2023-11-21T03:45:46;98522.84;;;4.07;100.00
71573;BME280;59408;51.032;9.410;2023-11-21T03:48:13;98517.25;;;4.03;100.00
71573;BME280;59408;51.032;9.410;2023-11-21T03:50:41;98518.19;;;3.99;100.00
71573;BME280;59408;51.032;9.410;2023-11-21T03:53:08;98514.22;;;3.96;100.00
71573;BME280;59408;51.032;9.410;2023-11-21T03:55:35;98521.81;;;3.94;100.00
71573;BME280;59408;51.032;9.410;2023-11-21T03:58:01;98519.25;;;3.89;100.00
71573;BME280;59408;51.032;9.410;2023-11-21T04:00:28;98519.34;;;3.84;100.00
71573;BME280;59408;51.032;9.410;2023-11-21T04:02:55;98521.38;;;3.78;100.00
71573;BME280;59408;51.032;9.410;2023-11-21T04:05:22;98512.63;;;3.73;100.00
71573;BME280;59408;51.032;9.410;2023-11-21T04:07:51;98522.44;;;3.69;100.00
71573;BME280;59408;51.032;9.410;2023-11-21T04:10:18;98522.56;;;3.64;100.00
71573;BME280;59408;51.032;9.410;2023-11-21T04:12:45;98525.66;;;3.57;100.00
71573;BME280;59408;51.032;9.410;2023-11-21T04:15:12;98525.00;;;3.51;100.00
71573;BME280;59408;51.032;9.410;2023-11-21T04:17:39;98524.63;;;3.44;100.00
71573;BME280;59408;51.032;9.410;2023-11-21T04:20:07;98527.25;;;3.36;100.00
71573;BME280;59408;51.032;9.410;2023-11-21T04:22:34;98522.59;;;3.28;100.00
71573;BME280;59408;51.032;9.410;2023-11-21T04:25:02;98522.19;;;3.21;100.00
71573;BME280;59408;51.032;9.410;2023-11-21T04:27:29;98521.00;;;3.13;100.00
71573;BME280;59408;51.032;9.410;2023-11-21T04:29:56;98526.97;;;3.10;100.00
71573;BME280;59408;51.032;9.410;2023-11-21T04:32:22;98536.50;;;3.07;100.00
71573;BME280;59408;51.032;9.410;2023-11-21T04:34:49;98535.19;;;3.05;100.00
71573;BME280;59408;51.032;9.410;2023-11-21T04:37:15;98544.47;;;2.99;100.00
71573;BME280;59408;51.032;9.410;2023-11-21T04:39:42;98552.66;;;2.94;100.00
71573;BME280;59408;51.032;9.410;2023-11-21T04:42:10;98558.66;;;2.91;100.00
71573;BME280;59408;51.032;9.410;2023-11-21T04:44:36;98557.84;;;2.90;100.00
71573;BME280;59408;51.032;9.410;2023-11-21T04:47:03;98563.53;;;2.89;100.00
71573;BME280;59408;51.032;9.410;2023-11-21T04:49:30;98558.66;;;2.91;100.00
71573;BME280;59408;51.032;9.410;2023-11-21T04:51:57;98557.06;;;2.90;100.00
71573;BME280;59408;51.032;9.410;2023-11-21T04:54:23;98560.06;;;2.88;100.00
71573;BME280;59408;51.032;9.410;2023-11-21T04:56:54;98566.75;;;2.91;100.00
71573;BME280;59408;51.032;9.410;2023-11-21T04:59:22;98573.31;;;2.85;100.00
71573;BME280;59408;51.032;9.410;2023-11-21T05:01:49;98572.91;;;2.78;100.00
71573;BME280;59408;51.032;9.410;2023-11-21T05:04:15;98575.72;;;2.72;100.00
71573;BME280;59408;51.032;9.410;2023-11-21T05:06:42;98567.94;;;2.71;100.00
71573;BME280;59408;51.032;9.410;2023-11-21T05:09:08;98579.00;;;2.69;100.00
71573;BME280;59408;51.032;9.410;2023-11-21T05:11:35;98584.97;;;2.66;100.00
71573;BME280;59408;51.032;9.410;2023-11-21T05:14:01;98582.09;;;2.63;100.00
71573;BME280;59408;51.032;9.410;2023-11-21T05:16:29;98583.47;;;2.60;100.00
71573;BME280;59408;51.032;9.410;2023-11-21T05:18:56;98587.25;;;2.59;100.00
71573;BME280;59408;51.032;9.410;2023-11-21T05:21:23;98588.06;;;2.60;100.00
71573;BME280;59408;51.032;9.410;2023-11-21T05:23:49;98586.97;;;2.61;100.00
71573;BME280;59408;51.032;9.410;2023-11-21T05:26:16;98596.03;;;2.65;100.00
71573;BME280;59408;51.032;9.410;2023-11-21T05:28:42;98606.22;;;2.68;100.00
71573;BME280;59408;51.032;9.410;2023-11-21T05:31:09;98609.41;;;2.70;100.00
71573;BME280;59408;51.032;9.410;2023-11-21T05:33:44;98614.22;;;2.73;100.00
71573;BME280;59408;51.032;9.410;2023-11-21T05:36:11;98619.78;;;2.76;100.00
71573;BME280;59408;51.032;9.410;2023-11-21T05:38:37;98622.59;;;2.85;100.00
71573;BME280;59408;51.032;9.410;2023-11-21T05:41:04;98628.97;;;2.89;100.00
71573;BME280;59408;51.032;9.410;2023-11-21T05:43:31;98628.38;;;2.92;100.00
71573;BME280;59408;51.032;9.410;2023-11-21T05:45:57;98632.06;;;2.96;100.00
71573;BME280;59408;51.032;9.410;2023-11-21T05:48:24;98628.78;;;2.99;100.00
71573;BME280;59408;51.032;9.410;2023-11-21T05:50:52;98635.78;;;3.00;100.00
71573;BME280;59408;51.032;9.410;2023-11-21T05:53:18;98641.66;;;3.02;100.00
71573;BME280;59408;51.032;9.410;2023-11-21T05:55:45;98640.56;;;3.03;100.00
71573;BME280;59408;51.032;9.410;2023-11-21T05:58:12;98632.69;;;3.07;100.00
71573;BME280;59408;51.032;9.410;2023-11-21T06:00:38;98634.00;;;3.09;100.00
71573;BME280;59408;51.032;9.410;2023-11-21T06:03:05;98638.75;;;3.12;100.00
71573;BME280;59408;51.032;9.410;2023-11-21T06:05:32;98641.38;;;3.18;100.00
71573;BME280;59408;51.032;9.410;2023-11-21T06:08:00;98645.84;;;3.22;100.00
71573;BME280;59408;51.032;9.410;2023-11-21T06:10:27;98636.66;;;3.23;100.00
71573;BME280;59408;51.032;9.410;2023-11-21T06:12:54;98651.16;;;3.27;100.00
71573;BME280;59408;51.032;9.410;2023-11-21T06:15:21;98652.25;;;3.26;100.00
71573;BME280;59408;51.032;9.410;2023-11-21T06:17:48;98654.31;;;3.29;100.00
71573;BME280;59408;51.032;9.410;2023-11-21T06:20:15;98657.81;;;3.30;100.00
71573;BME280;59408;51.032;9.410;2023-11-21T06:22:42;98659.13;;;3.32;100.00
71573;BME280;59408;51.032;9.410;2023-11-21T06:25:11;98664.22;;;3.34;100.00
71573;BME280;59408;51.032;9.410;2023-11-21T06:27:40;98668.50;;;3.35;100.00
71573;BME280;59408;51.032;9.410;2023-11-21T06:30:07;98673.91;;;3.35;100.00
71573;BME280;59408;51.032;9.410;2023-11-21T06:32:34;98673.59;;;3.36;100.00
71573;BME280;59408;51.032;9.410;2023-11-21T06:35:01;98678.69;;;3.38;100.00
71573;BME280;59408;51.032;9.410;2023-11-21T06:37:28;98682.69;;;3.40;100.00
71573;BME280;59408;51.032;9.410;2023-11-21T06:39:56;98677.00;;;3.42;100.00
71573;BME280;59408;51.032;9.410;2023-11-21T06:42:25;98685.59;;;3.44;100.00
71573;BME280;59408;51.032;9.410;2023-11-21T06:44:52;98685.75;;;3.47;100.00
71573;BME280;59408;51.032;9.410;2023-11-21T06:47:18;98679.56;;;3.47;100.00
71573;BME280;59408;51.032;9.410;2023-11-21T06:49:45;98685.47;;;3.49;100.00
71573;BME280;59408;51.032;9.410;2023-11-21T06:52:12;98689.75;;;3.50;100.00
71573;BME280;59408;51.032;9.410;2023-11-21T06:54:38;98692.16;;;3.51;100.00
71573;BME280;59408;51.032;9.410;2023-11-21T06:57:05;98691.06;;;3.53;100.00
71573;BME280;59408;51.032;9.410;2023-11-21T06:59:33;98696.16;;;3.54;100.00
71573;BME280;59408;51.032;9.410;2023-11-21T07:01:59;98702.84;;;3.57;100.00
71573;BME280;59408;51.032;9.410;2023-11-21T07:04:26;98702.53;;;3.58;100.00
71573;BME280;59408;51.032;9.410;2023-11-21T07:06:53;98701.72;;;3.58;100.00
71573;BME280;59408;51.032;9.410;2023-11-21T07:09:20;98703.34;;;3.59;100.00
71573;BME280;59408;51.032;9.410;2023-11-21T07:11:46;98703.63;;;3.57;100.00
71573;BME280;59408;51.032;9.410;2023-11-21T07:14:13;98720.91;;;3.56;100.00
71573;BME280;59408;51.032;9.410;2023-11-21T07:16:41;98719.50;;;3.59;100.00
71573;BME280;59408;51.032;9.410;2023-11-21T07:19:08;98728.19;;;3.56;100.00
71573;BME280;59408;51.032;9.410;2023-11-21T07:21:35;98737.00;;;3.61;100.00
71573;BME280;59408;51.032;9.410;2023-11-21T07:24:02;98745.28;;;3.65;100.00
71573;BME280;59408;51.032;9.410;2023-11-21T07:26:30;98741.97;;;3.68;100.00
71573;BME280;59408;51.032;9.410;2023-11-21T07:28:56;98747.59;;;3.71;100.00
71573;BME280;59408;51.032;9.410;2023-11-21T07:31:23;98747.28;;;3.73;100.00
71573;BME280;59408;51.032;9.410;2023-11-21T07:33:51;98765.25;;;3.77;100.00
71573;BME280;59408;51.032;9.410;2023-11-21T07:36:18;98764.97;;;3.79;100.00
71573;BME280;59408;51.032;9.410;2023-11-21T07:38:45;98765.94;;;3.83;100.00
71573;BME280;59408;51.032;9.410;2023-11-21T07:41:12;98762.78;;;3.81;100.00
71573;BME280;59408;51.032;9.410;2023-11-21T07:43:53;98762.78;;;3.81;100.00
71573;BME280;59408;51.032;9.410;2023-11-21T07:46:20;98764.53;;;3.85;100.00
71573;BME280;59408;51.032;9.410;2023-11-21T07:48:47;98770.44;;;3.87;100.00
71573;BME280;59408;51.032;9.410;2023-11-21T07:51:16;98766.16;;;3.86;100.00
71573;BME280;59408;51.032;9.410;2023-11-21T07:53:42;98772.44;;;3.96;100.00
71573;BME280;59408;51.032;9.410;2023-11-21T07:56:09;98781.03;;;3.98;100.00
71573;BME280;59408;51.032;9.410;2023-11-21T07:58:36;98772.66;;;3.99;100.00
71573;BME280;59408;51.032;9.410;2023-11-21T08:01:05;98769.81;;;4.04;100.00
71573;BME280;59408;51.032;9.410;2023-11-21T08:03:32;98773.53;;;4.08;100.00
71573;BME280;59408;51.032;9.410;2023-11-21T08:05:59;98795.81;;;4.14;100.00
71573;BME280;59408;51.032;9.410;2023-11-21T08:08:27;98793.00;;;4.19;100.00
71573;BME280;59408;51.032;9.410;2023-11-21T08:10:54;98796.88;;;4.26;100.00
71573;BME280;59408;51.032;9.410;2023-11-21T08:13:21;98800.78;;;4.34;100.00
71573;BME280;59408;51.032;9.410;2023-11-21T08:15:47;98793.66;;;4.38;100.00
71573;BME280;59408;51.032;9.410;2023-11-21T08:18:14;98805.16;;;4.44;100.00
71573;BME280;59408;51.032;9.410;2023-11-21T08:20:41;98803.50;;;4.56;100.00
71573;BME280;59408;51.032;9.410;2023-11-21T08:23:08;98802.59;;;4.61;100.00
71573;BME280;59408;51.032;9.410;2023-11-21T08:25:36;98804.44;;;4.74;100.00
71573;BME280;59408;51.032;9.410;2023-11-21T08:28:03;98799.28;;;4.86;100.00
71573;BME280;59408;51.032;9.410;2023-11-21T08:30:30;98799.22;;;4.91;100.00
71573;BME280;59408;51.032;9.410;2023-11-21T08:32:56;98805.81;;;4.85;100.00
71573;BME280;59408;51.032;9.410;2023-11-21T08:35:23;98804.97;;;4.98;100.00
71573;BME280;59408;51.032;9.410;2023-11-21T08:37:51;98805.84;;;5.08;100.00
71573;BME280;59408;51.032;9.410;2023-11-21T08:40:17;98809.41;;;5.17;100.00
71573;BME280;59408;51.032;9.410;2023-11-21T08:42:45;98809.75;;;5.24;100.00
71573;BME280;59408;51.032;9.410;2023-11-21T08:45:12;98813.31;;;5.33;100.00
71573;BME280;59408;51.032;9.410;2023-11-21T08:47:39;98813.81;;;5.35;100.00
71573;BME280;59408;51.032;9.410;2023-11-21T08:50:07;98819.41;;;5.47;100.00
71573;BME280;59408;51.032;9.410;2023-11-21T08:52:34;98813.75;;;5.57;100.00
71573;BME280;59408;51.032;9.410;2023-11-21T08:55:00;98828.53;;;5.51;100.00
71573;BME280;59408;51.032;9.410;2023-11-21T08:57:27;98826.00;;;5.55;100.00
71573;BME280;59408;51.032;9.410;2023-11-21T08:59:55;98820.59;;;5.55;100.00
71573;BME280;59408;51.032;9.410;2023-11-21T09:02:21;98824.72;;;5.52;100.00
71573;BME280;59408;51.032;9.410;2023-11-21T09:04:48;98830.63;;;5.54;100.00
71573;BME280;59408;51.032;9.410;2023-11-21T09:07:15;98829.97;;;5.57;100.00
71573;BME280;59408;51.032;9.410;2023-11-21T09:09:41;98828.38;;;5.56;100.00
71573;BME280;59408;51.032;9.410;2023-11-21T09:12:08;98836.19;;;5.58;100.00
71573;BME280;59408;51.032;9.410;2023-11-21T09:14:35;98839.88;;;5.62;100.00
71573;BME280;59408;51.032;9.410;2023-11-21T09:17:03;98837.66;;;5.64;100.00
71573;BME280;59408;51.032;9.410;2023-11-21T09:19:29;98831.91;;;5.65;100.00
71573;BME280;59408;51.032;9.410;2023-11-21T09:21:56;98846.44;;;5.69;100.00
71573;BME280;59408;51.032;9.410;2023-11-21T09:24:23;98849.50;;;5.76;100.00
71573;BME280;59408;51.032;9.410;2023-11-21T09:26:49;98851.28;;;5.81;100.00
71573;BME280;59408;51.032;9.410;2023-11-21T09:29:16;98854.28;;;5.80;100.00
71573;BME280;59408;51.032;9.410;2023-11-21T09:31:43;98851.00;;;5.91;100.00
71573;BME280;59408;51.032;9.410;2023-11-21T09:34:11;98856.09;;;5.93;100.00
71573;BME280;59408;51.032;9.410;2023-11-21T09:36:37;98863.25;;;5.89;100.00
71573;BME280;59408;51.032;9.410;2023-11-21T09:39:04;98866.28;;;5.96;100.00
71573;BME280;59408;51.032;9.410;2023-11-21T09:41:40;98862.44;;;5.88;100.00
71573;BME280;59408;51.032;9.410;2023-11-21T09:44:09;98855.16;;;5.97;100.00
71573;BME280;59408;51.032;9.410;2023-11-21T09:46:41;98867.31;;;6.08;100.00
71573;BME280;59408;51.032;9.410;2023-11-21T09:49:10;98865.88;;;6.20;100.00
71573;BME280;59408;51.032;9.410;2023-11-21T09:51:42;98864.38;;;6.36;100.00
71573;BME280;59408;51.032;9.410;2023-11-21T09:54:10;98867.25;;;6.48;100.00
71573;BME280;59408;51.032;9.410;2023-11-21T09:56:37;98872.84;;;6.51;100.00
71573;BME280;59408;51.032;9.410;2023-11-21T09:59:05;98874.16;;;6.63;100.00
71573;BME280;59408;51.032;9.410;2023-11-21T10:01:32;98877.00;;;6.75;100.00
71573;BME280;59408;51.032;9.410;2023-11-21T10:04:00;98872.56;;;6.79;100.00
71573;BME280;59408;51.032;9.410;2023-11-21T10:06:28;98881.00;;;6.86;100.00
71573;BME280;59408;51.032;9.410;2023-11-21T10:08:57;98885.00;;;6.80;100.00
71573;BME280;59408;51.032;9.410;2023-11-21T10:11:26;98876.88;;;6.88;100.00
71573;BME280;59408;51.032;9.410;2023-11-21T10:13:54;98875.75;;;6.89;100.00
71573;BME280;59408;51.032;9.410;2023-11-21T10:16:22;98883.72;;;6.77;100.00
71573;BME280;59408;51.032;9.410;2023-11-21T10:18:52;98883.88;;;6.81;100.00
71573;BME280;59408;51.032;9.410;2023-11-21T10:21:24;98880.84;;;6.74;100.00
71573;BME280;59408;51.032;9.410;2023-11-21T10:23:53;98882.41;;;6.66;100.00
71573;BME280;59408;51.032;9.410;2023-11-21T10:26:20;98881.47;;;6.71;100.00
71573;BME280;59408;51.032;9.410;2023-11-21T10:28:57;98882.09;;;6.59;100.00
71573;BME280;59408;51.032;9.410;2023-11-21T10:31:25;98878.09;;;6.57;100.00
71573;BME280;59408;51.032;9.410;2023-11-21T10:33:53;98887.03;;;6.57;100.00
71573;BME280;59408;51.032;9.410;2023-11-21T10:36:25;98895.03;;;6.62;100.00
71573;BME280;59408;51.032;9.410;2023-11-21T10:38:53;98889.75;;;6.57;100.00
71573;BME280;59408;51.032;9.410;2023-11-21T10:41:20;98893.25;;;6.58;100.00
71573;BME280;59408;51.032;9.410;2023-11-21T10:43:47;98892.59;;;6.52;100.00
71573;BME280;59408;51.032;9.410;2023-11-21T10:46:14;98899.63;;;6.53;100.00
71573;BME280;59408;51.032;9.410;2023-11-21T10:48:41;98895.63;;;6.50;100.00
71573;BME280;59408;51.032;9.410;2023-11-21T10:51:08;98902.47;;;6.57;100.00
71573;BME280;59408;51.032;9.410;2023-11-21T10:53:38;98898.66;;;6.49;100.00
71573;BME280;59408;51.032;9.410;2023-11-21T10:56:08;98910.78;;;6.51;100.00
71573;BME280;59408;51.032;9.410;2023-11-21T10:58:35;98901.63;;;6.39;100.00
71573;BME280;59408;51.032;9.410;2023-11-21T11:01:05;98912.31;;;6.35;100.00
71573;BME280;59408;51.032;9.410;2023-11-21T11:03:32;98909.31;;;6.37;100.00
71573;BME280;59408;51.032;9.410;2023-11-21T11:06:02;98904.19;;;6.27;100.00
71573;BME280;59408;51.032;9.410;2023-11-21T11:08:29;98907.19;;;6.25;100.00
71573;BME280;59408;51.032;9.410;2023-11-21T11:10:56;98907.00;;;6.22;100.00
71573;BME280;59408;51.032;9.410;2023-11-21T11:13:24;98907.47;;;6.15;100.00
71573;BME280;59408;51.032;9.410;2023-11-21T11:15:57;98903.03;;;6.19;100.00
71573;BME280;59408;51.032;9.410;2023-11-21T11:18:24;98905.06;;;6.13;100.00
71573;BME280;59408;51.032;9.410;2023-11-21T11:20:51;98902.50;;;6.08;100.00
71573;BME280;59408;51.032;9.410;2023-11-21T11:23:33;98909.03;;;6.07;100.00
71573;BME280;59408;51.032;9.410;2023-11-21T11:26:12;98913.69;;;6.16;100.00
71573;BME280;59408;51.032;9.410;2023-11-21T11:28:47;98913.88;;;6.19;100.00
71573;BME280;59408;51.032;9.410;2023-11-21T11:31:27;98915.13;;;6.22;100.00
71573;BME280;59408;51.032;9.410;2023-11-21T11:33:59;98904.47;;;6.25;100.00
71573;BME280;59408;51.032;9.410;2023-11-21T11:36:34;98901.78;;;6.25;100.00
71573;BME280;59408;51.032;9.410;2023-11-21T11:39:02;98907.50;;;6.24;100.00
71573;BME280;59408;51.032;9.410;2023-11-21T11:41:31;98919.94;;;6.25;100.00
71573;BME280;59408;51.032;9.410;2023-11-21T11:43:59;98925.34;;;6.25;100.00
71573;BME280;59408;51.032;9.410;2023-11-21T11:46:40;98922.47;;;6.30;100.00
71573;BME280;59408;51.032;9.410;2023-11-21T11:49:07;98922.47;;;6.30;100.00
71573;BME280;59408;51.032;9.410;2023-11-21T11:51:34;98925.88;;;6.35;100.00
71573;BME280;59408;51.032;9.410;2023-11-21T11:54:01;98922.84;;;6.37;100.00
71573;BME280;59408;51.032;9.410;2023-11-21T11:56:28;98931.94;;;6.41;100.00
71573;BME280;59408;51.032;9.410;2023-11-21T11:58:56;98927.63;;;6.40;100.00
71573;BME280;59408;51.032;9.410;2023-11-21T12:01:27;98926.38;;;6.37;100.00
71573;BME280;59408;51.032;9.410;2023-11-21T12:04:24;98928.13;;;6.42;100.00
71573;BME280;59408;51.032;9.410;2023-11-21T12:06:52;98922.84;;;6.37;100.00
71573;BME280;59408;51.032;9.410;2023-11-21T12:09:19;98930.34;;;6.40;100.00
71573;BME280;59408;51.032;9.410;2023-11-21T12:11:46;98928.75;;;6.47;100.00
71573;BME280;59408;51.032;9.410;2023-11-21T12:14:14;98931.84;;;6.55;100.00
71573;BME280;59408;51.032;9.410;2023-11-21T12:16:42;98925.63;;;6.54;100.00
71573;BME280;59408;51.032;9.410;2023-11-21T12:19:10;98928.91;;;6.42;100.00
71573;BME280;59408;51.032;9.410;2023-11-21T12:21:36;98930.63;;;6.38;100.00
71573;BME280;59408;51.032;9.410;2023-11-21T12:24:04;98926.81;;;6.39;100.00
71573;BME280;59408;51.032;9.410;2023-11-21T12:26:32;98930.50;;;6.35;100.00
71573;BME280;59408;51.032;9.410;2023-11-21T12:28:59;98932.22;;;6.31;100.00
71573;BME280;59408;51.032;9.410;2023-11-21T12:31:25;98932.72;;;6.33;100.00
71573;BME280;59408;51.032;9.410;2023-11-21T12:33:55;98933.00;;;6.31;100.00
71573;BME280;59408;51.032;9.410;2023-11-21T12:36:22;98928.09;;;6.33;100.00
71573;BME280;59408;51.032;9.410;2023-11-21T12:38:49;98930.19;;;6.36;100.00
71573;BME280;59408;51.032;9.410;2023-11-21T12:41:16;98933.19;;;6.35;100.00
71573;BME280;59408;51.032;9.410;2023-11-21T12:43:43;98940.03;;;6.32;100.00
71573;BME280;59408;51.032;9.410;2023-11-21T12:46:10;98934.91;;;6.31;100.00
71573;BME280;59408;51.032;9.410;2023-11-21T12:48:37;98940.19;;;6.27;100.00
71573;BME280;59408;51.032;9.410;2023-11-21T12:51:08;98941.59;;;6.25;100.00
71573;BME280;59408;51.032;9.410;2023-11-21T12:53:35;98940.31;;;6.22;100.00
71573;BME280;59408;51.032;9.410;2023-11-21T12:56:05;98949.06;;;6.19;100.00
71573;BME280;59408;51.032;9.410;2023-11-21T12:58:32;98945.06;;;6.17;100.00
71573;BME280;59408;51.032;9.410;2023-11-21T13:00:59;98946.00;;;6.12;100.00